Time;durP1;ratioP1;P1;durP2;ratioP2;P2;SDS_P1;SDS_P2;PMS_P1;PMS_P2;Temp;Humidity;BMP_temperature;BMP_pressure;BME280_temperature;BME280_humidity;BME280_pressure;Samples;Min_cycle;Max_cycle;Signal;HPM_P1;HPM_P2
2022/11/09 00:02:05;;;;;;;15.33;11.73;;;;;;;;;;6256164;28;20054;-66
2022/11/09 00:05:08;;;;;;;19.75;12.32;;;;;;;;;;6257948;28;20062;-66
2022/11/09 00:08:11;;;;;;;19.27;12.32;;;;;;;;;;6258462;28;20318;-66
2022/11/09 00:11:12;;;;;;;19.70;12.88;;;;;;;;;;6253631;28;20333;-67
2022/11/09 00:14:16;;;;;;;19.13;13.88;;;;;;;;;;6251690;28;20054;-66
2022/11/09 00:17:18;;;;;;;;;;;;;;;;;;6260823;28;20053;-66
2022/11/09 00:20:20;;;;;;;19.20;13.68;;;;;;;;;;6252087;28;19924;-67
2022/11/09 00:23:22;;;;;;;21.52;13.82;;;;;;;;;;6254852;28;20057;-67
2022/11/09 00:26:24;;;;;;;21.25;13.55;;;;;;;;;;6254456;28;20049;-67
2022/11/09 00:29:26;;;;;;;25.15;13.88;;;;;;;;;;6251233;28;20218;-66
2022/11/09 00:32:28;;;;;;;18.33;14.30;;;;;;;;;;6250958;28;20053;-67
2022/11/09 00:35:30;;;;;;;19.80;13.35;;;;;;;;;;6252976;28;20053;-66
2022/11/09 00:38:31;;;;;;;18.25;13.50;;;;;;;;;;6252144;28;20056;-67
2022/11/09 00:41:33;;;;;;;17.83;13.52;;;;;;;;;;6249852;28;20115;-65
2022/11/09 00:44:36;;;;;;;16.17;11.85;;;;;;;;;;6251909;28;20297;-67
2022/11/09 00:47:37;;;;;;;18.10;12.63;;;;;;;;;;6250888;28;20095;-66
2022/11/09 00:50:39;;;;;;;19.95;12.48;;;;;;;;;;6252495;28;20111;-66
2022/11/09 00:53:41;;;;;;;16.48;10.82;;;;;;;;;;6253506;28;20340;-66
2022/11/09 00:56:43;;;;;;;15.15;9.77;;;;;;;;;;6248058;28;20367;-65
2022/11/09 00:59:46;;;;;;;13.45;9.38;;;;;;;;;;6249005;28;20120;-67
2022/11/09 01:02:49;;;;;;;14.63;8.60;;;;;;;;;;6251473;28;20041;-68
2022/11/09 01:05:51;;;;;;;13.57;8.68;;;;;;;;;;6251418;28;20061;-67
2022/11/09 01:08:53;;;;;;;13.95;8.43;;;;;;;;;;6254070;28;20096;-68
2022/11/09 01:11:55;;;;;;;12.75;8.75;;;;;;;;;;6254919;28;20341;-68
2022/11/09 01:14:58;;;;;;;15.88;9.13;;;;;;;;;;6259114;28;20049;-67
2022/11/09 01:17:59;;;;;;;17.23;9.33;;;;;;;;;;6253487;28;20064;-67
2022/11/09 01:21:02;;;;;;;12.95;8.48;;;;;;;;;;6256887;28;20057;-67
2022/11/09 01:24:05;;;;;;;10.82;8.30;;;;;;;;;;6254965;28;20199;-66
2022/11/09 01:27:06;;;;;;;13.18;9.15;;;;;;;;;;6259957;28;20053;-66
2022/11/09 01:30:10;;;;;;;12.65;9.38;;;;;;;;;;6255783;28;20053;-70
2022/11/09 01:33:12;;;;;;;12.27;9.70;;;;;;;;;;6259536;28;20100;-66
2022/11/09 01:36:16;;;;;;;15.50;8.68;;;;;;;;;;6253532;28;20083;-67
2022/11/09 01:39:18;;;;;;;;;;;;;;;;;;6250349;28;20092;-66
2022/11/09 01:42:23;;;;;;;13.82;9.10;;;;;;;;;;6248927;28;20035;-66
2022/11/09 01:45:28;;;;;;;13.65;9.10;;;;;;;;;;6248836;28;20068;-66
2022/11/09 01:48:35;;;;;;;15.63;10.00;;;;;;;;;;6247877;28;20050;-67
2022/11/09 01:51:38;;;;;;;13.15;9.25;;;;;;;;;;6255944;28;20156;-66
2022/11/09 01:54:42;;;;;;;13.55;10.00;;;;;;;;;;6251523;28;20095;-66
2022/11/09 01:57:45;;;;;;;;;;;;;;;;;;6255129;28;20053;-66
2022/11/09 02:00:49;;;;;;;12.38;8.77;;;;;;;;;;6256019;28;19925;-66
2022/11/09 02:03:56;;;;;;;12.75;8.40;;;;;;;;;;6256712;28;20049;-67
2022/11/09 02:06:58;;;;;;;13.13;8.10;;;;;;;;;;6261234;28;20108;-66
2022/11/09 02:10:04;;;;;;;11.27;8.00;;;;;;;;;;6257927;28;20053;-66
2022/11/09 02:13:06;;;;;;;13.43;7.80;;;;;;;;;;6260161;28;20062;-67
2022/11/09 02:16:12;;;;;;;11.60;7.93;;;;;;;;;;6258666;28;20071;-67
2022/11/09 02:19:14;;;;;;;12.75;7.93;;;;;;;;;;6256806;28;20120;-66
2022/11/09 02:22:17;;;;;;;12.60;8.35;;;;;;;;;;6253616;28;20045;-65
2022/11/09 02:25:18;;;;;;;11.47;8.07;;;;;;;;;;6257889;28;20057;-66
2022/11/09 02:28:20;;;;;;;11.68;7.78;;;;;;;;;;6255711;28;20049;-67
2022/11/09 02:31:25;;;;;;;11.65;7.70;;;;;;;;;;6259399;28;20118;-67
2022/11/09 02:34:27;;;;;;;11.73;8.43;;;;;;;;;;6253807;28;20041;-66
2022/11/09 02:37:34;;;;;;;12.75;7.68;;;;;;;;;;6255043;28;20057;-66
2022/11/09 02:40:37;;;;;;;13.27;8.38;;;;;;;;;;6257270;28;20106;-66
2022/11/09 02:43:39;;;;;;;14.55;7.75;;;;;;;;;;6257488;28;20053;-66
2022/11/09 02:46:40;;;;;;;12.80;8.48;;;;;;;;;;6252399;28;20567;-66
2022/11/09 02:49:42;;;;;;;13.25;7.63;;;;;;;;;;6254449;28;20053;-67
2022/11/09 02:52:45;;;;;;;14.27;8.20;;;;;;;;;;6255675;28;20045;-66
2022/11/09 02:55:46;;;;;;;15.13;7.80;;;;;;;;;;6257376;28;20049;-67
2022/11/09 02:58:48;;;;;;;14.57;7.68;;;;;;;;;;6256822;28;20052;-67
2022/11/09 03:01:50;;;;;;;11.68;7.40;;;;;;;;;;6246706;28;20072;-65
2022/11/09 03:04:51;;;;;;;13.98;8.55;;;;;;;;;;6258523;28;20061;-66
2022/11/09 03:07:55;;;;;;;12.30;8.25;;;;;;;;;;6251964;28;20232;-66
2022/11/09 03:10:59;;;;;;;13.20;9.02;;;;;;;;;;6259985;28;20061;-66
2022/11/09 03:14:00;;;;;;;14.18;9.13;;;;;;;;;;6255500;28;20064;-66
2022/11/09 03:17:02;;;;;;;14.13;9.73;;;;;;;;;;6251276;28;20107;-67
2022/11/09 03:20:04;;;;;;;13.93;9.88;;;;;;;;;;6253782;28;20092;-67
2022/11/09 03:23:09;;;;;;;13.70;9.50;;;;;;;;;;6255478;28;20052;-66
2022/11/09 03:26:11;;;;;;;15.23;10.15;;;;;;;;;;6251643;28;20059;-66
2022/11/09 03:29:13;;;;;;;13.52;9.52;;;;;;;;;;6248866;28;20061;-65
2022/11/09 03:32:14;;;;;;;12.15;9.48;;;;;;;;;;6254193;28;20139;-66
2022/11/09 03:35:16;;;;;;;15.85;10.57;;;;;;;;;;6256920;28;20053;-67
2022/11/09 03:38:19;;;;;;;14.68;10.05;;;;;;;;;;6251826;28;20050;-66
2022/11/09 03:41:20;;;;;;;15.02;10.27;;;;;;;;;;6253665;28;20045;-66
2022/11/09 03:44:22;;;;;;;15.52;10.20;;;;;;;;;;6255121;28;20096;-66
2022/11/09 03:47:24;;;;;;;13.77;9.88;;;;;;;;;;6255259;28;20056;-65
2022/11/09 03:50:26;;;;;;;14.35;10.02;;;;;;;;;;6253127;28;20060;-66
2022/11/09 03:53:29;;;;;;;13.68;10.25;;;;;;;;;;6252074;28;20325;-66
2022/11/09 03:56:30;;;;;;;13.15;10.27;;;;;;;;;;6252803;28;20041;-66
2022/11/09 03:59:32;;;;;;;13.30;10.07;;;;;;;;;;6254889;28;20054;-66
2022/11/09 04:02:34;;;;;;;12.88;10.15;;;;;;;;;;6252363;28;20348;-66
2022/11/09 04:05:35;;;;;;;13.65;10.73;;;;;;;;;;6252435;28;20337;-66
2022/11/09 04:08:38;;;;;;;13.32;10.68;;;;;;;;;;6250485;28;20095;-66
2022/11/09 04:11:40;;;;;;;16.10;11.02;;;;;;;;;;6255047;28;20325;-66
2022/11/09 04:14:41;;;;;;;14.23;11.52;;;;;;;;;;6256834;28;20049;-66
2022/11/09 04:17:44;;;;;;;15.73;10.93;;;;;;;;;;6255822;28;20060;-67
2022/11/09 04:20:46;;;;;;;13.95;11.27;;;;;;;;;;6249963;28;20233;-65
2022/11/09 04:23:50;;;;;;;14.18;10.02;;;;;;;;;;6252178;28;20053;-66
2022/11/09 04:26:52;;;;;;;15.25;10.65;;;;;;;;;;6254008;28;20048;-66
2022/11/09 04:29:53;;;;;;;14.15;10.73;;;;;;;;;;6255576;28;20158;-66
2022/11/09 04:32:55;;;;;;;15.13;10.85;;;;;;;;;;6252238;28;20084;-66
2022/11/09 04:36:02;;;;;;;16.98;10.25;;;;;;;;;;6248723;28;20053;-66
2022/11/09 04:39:05;;;;;;;15.45;11.23;;;;;;;;;;6256165;28;20113;-66
2022/11/09 04:42:06;;;;;;;13.82;10.43;;;;;;;;;;6248746;28;20042;-67
2022/11/09 04:45:08;;;;;;;15.18;10.77;;;;;;;;;;6252761;28;20049;-66
2022/11/09 04:48:10;;;;;;;15.88;10.70;;;;;;;;;;6252068;28;20041;-66
2022/11/09 04:51:12;;;;;;;14.50;10.85;;;;;;;;;;6256945;28;20076;-67
2022/11/09 04:54:15;;;;;;;14.80;10.75;;;;;;;;;;6252648;28;20087;-66
2022/11/09 04:57:17;;;;;;;17.52;11.35;;;;;;;;;;6256396;28;20057;-67
2022/11/09 05:00:19;;;;;;;15.10;11.00;;;;;;;;;;6252621;28;20109;-66
2022/11/09 05:03:21;;;;;;;16.58;10.88;;;;;;;;;;6254638;28;20053;-66
2022/11/09 05:06:31;;;;;;;17.27;11.00;;;;;;;;;;6252019;28;20107;-63
2022/11/09 05:09:34;;;;;;;15.60;11.48;;;;;;;;;;6257691;28;20095;-63
2022/11/09 05:12:36;;;;;;;15.32;11.52;;;;;;;;;;6251693;28;20049;-64
2022/11/09 05:15:38;;;;;;;15.85;11.85;;;;;;;;;;6255076;28;20061;-64
2022/11/09 05:18:39;;;;;;;19.75;11.85;;;;;;;;;;6258401;28;20044;-64
2022/11/09 05:21:41;;;;;;;14.13;11.27;;;;;;;;;;6258927;28;20095;-64
2022/11/09 05:24:43;;;;;;;15.68;11.63;;;;;;;;;;6255621;28;20049;-64
2022/11/09 05:27:44;;;;;;;17.13;11.88;;;;;;;;;;6254553;28;20089;-65
2022/11/09 05:30:46;;;;;;;18.15;12.18;;;;;;;;;;6257561;28;20048;-67
2022/11/09 05:33:49;;;;;;;15.63;11.50;;;;;;;;;;6257195;28;20100;-65
2022/11/09 05:36:50;;;;;;;16.15;11.38;;;;;;;;;;6260792;28;20072;-66
2022/11/09 05:39:53;;;;;;;15.15;10.55;;;;;;;;;;6242393;28;20184;-67
2022/11/09 05:42:55;;;;;;;14.88;10.60;;;;;;;;;;6227044;28;20068;-66
2022/11/09 05:45:57;;;;;;;15.57;11.07;;;;;;;;;;6262675;28;20302;-66
2022/11/09 05:48:58;;;;;;;13.48;9.80;;;;;;;;;;6261803;28;20045;-66
2022/11/09 05:52:00;;;;;;;13.85;10.00;;;;;;;;;;6254728;28;20380;-66
2022/11/09 05:55:04;;;;;;;16.10;10.00;;;;;;;;;;6253220;28;20053;-66
2022/11/09 05:58:06;;;;;;;15.30;10.18;;;;;;;;;;6257254;28;20067;-66
2022/11/09 06:01:08;;;;;;;14.55;10.43;;;;;;;;;;6254664;28;20550;-66
2022/11/09 06:04:10;;;;;;;11.93;9.23;;;;;;;;;;6258682;28;20048;-66
2022/11/09 06:07:12;;;;;;;14.93;9.70;;;;;;;;;;6253892;28;20391;-66
2022/11/09 06:10:15;;;;;;;15.88;10.60;;;;;;;;;;6252551;28;20073;-67
2022/11/09 06:13:16;;;;;;;14.13;9.63;;;;;;;;;;6256375;28;20494;-67
2022/11/09 06:16:18;;;;;;;15.10;10.60;;;;;;;;;;6252505;28;21626;-66
2022/11/09 06:19:20;;;;;;;25.80;11.13;;;;;;;;;;6255812;28;20057;-66
2022/11/09 06:22:21;;;;;;;15.57;10.38;;;;;;;;;;6257028;28;20099;-67
2022/11/09 06:25:24;;;;;;;14.63;11.05;;;;;;;;;;6255861;28;20148;-66
2022/11/09 06:28:27;;;;;;;16.58;11.05;;;;;;;;;;6253990;28;20052;-66
2022/11/09 06:31:28;;;;;;;18.67;11.00;;;;;;;;;;6252566;28;20049;-66
2022/11/09 06:34:30;;;;;;;17.65;10.88;;;;;;;;;;6257587;28;20067;-67
2022/11/09 06:37:31;;;;;;;15.80;11.73;;;;;;;;;;6255063;28;20095;-66
2022/11/09 06:40:35;;;;;;;14.57;11.30;;;;;;;;;;6253463;28;20057;-66
2022/11/09 06:43:37;;;;;;;;;;;;;;;;;;6257951;28;20232;-66
2022/11/09 06:46:38;;;;;;;17.13;11.23;;;;;;;;;;6253891;28;19925;-67
2022/11/09 06:49:40;;;;;;;17.45;11.73;;;;;;;;;;6252944;28;20061;-67
2022/11/09 06:52:42;;;;;;;14.07;11.18;;;;;;;;;;6253749;28;20041;-66
2022/11/09 06:55:45;;;;;;;19.05;12.65;;;;;;;;;;6253951;28;20057;-67
2022/11/09 06:58:46;;;;;;;15.57;11.53;;;;;;;;;;6254596;28;20058;-66
2022/11/09 07:01:48;;;;;;;16.02;12.45;;;;;;;;;;6255209;28;20049;-67
2022/11/09 07:04:51;;;;;;;15.88;11.10;;;;;;;;;;6258386;28;20100;-67
2022/11/09 07:07:53;;;;;;;20.02;11.95;;;;;;;;;;6252311;28;20087;-66
2022/11/09 07:10:56;;;;;;;18.35;12.65;;;;;;;;;;6253980;28;20049;-66
2022/11/09 07:13:58;;;;;;;15.55;11.70;;;;;;;;;;6253946;28;20052;-67
2022/11/09 07:16:59;;;;;;;15.98;11.60;;;;;;;;;;6258227;28;20053;-67
2022/11/09 07:20:01;;;;;;;16.60;12.10;;;;;;;;;;6254844;28;20183;-66
2022/11/09 07:23:02;;;;;;;19.88;12.90;;;;;;;;;;6254126;28;20061;-67
2022/11/09 07:26:05;;;;;;;17.52;12.98;;;;;;;;;;6249695;28;20057;-66
2022/11/09 07:29:07;;;;;;;19.70;13.47;;;;;;;;;;6250467;28;20046;-66
2022/11/09 07:32:09;;;;;;;17.48;13.10;;;;;;;;;;6252289;28;20631;-67
2022/11/09 07:35:11;;;;;;;18.10;13.55;;;;;;;;;;6253701;28;20119;-66
2022/11/09 07:38:14;;;;;;;21.48;14.40;;;;;;;;;;6250951;28;20053;-67
2022/11/09 07:41:17;;;;;;;18.35;13.27;;;;;;;;;;6250391;28;20049;-67
2022/11/09 07:44:19;;;;;;;19.52;13.55;;;;;;;;;;6249818;28;20091;-66
2022/11/09 07:47:20;;;;;;;19.15;12.20;;;;;;;;;;6254985;28;20248;-66
2022/11/09 07:50:22;;;;;;;17.80;11.88;;;;;;;;;;6251124;28;20049;-67
2022/11/09 07:53:23;;;;;;;16.58;12.25;;;;;;;;;;6253551;28;20111;-67
2022/11/09 07:56:26;;;;;;;15.85;11.65;;;;;;;;;;6250479;28;20052;-66
2022/11/09 07:59:28;;;;;;;16.60;11.95;;;;;;;;;;6254628;28;20056;-66
2022/11/09 08:02:29;;;;;;;17.05;11.60;;;;;;;;;;6252905;28;20103;-69
2022/11/09 08:05:32;;;;;;;20.27;12.02;;;;;;;;;;6250766;28;20117;-67
2022/11/09 08:08:33;;;;;;;16.27;11.20;;;;;;;;;;6251801;28;20068;-67
2022/11/09 08:11:36;;;;;;;14.75;11.63;;;;;;;;;;6253240;28;20049;-66
2022/11/09 08:14:38;;;;;;;16.50;11.52;;;;;;;;;;6255720;28;20083;-66
2022/11/09 08:17:39;;;;;;;16.75;11.88;;;;;;;;;;6251109;28;20061;-66
2022/11/09 08:20:41;;;;;;;19.42;13.95;;;;;;;;;;6253576;28;20395;-67
2022/11/09 08:23:43;;;;;;;17.10;13.18;;;;;;;;;;6252238;28;20060;-66
2022/11/09 08:26:46;;;;;;;19.52;13.18;;;;;;;;;;6251531;28;20498;-67
2022/11/09 08:29:47;;;;;;;18.35;13.05;;;;;;;;;;6250036;28;20048;-67
2022/11/09 08:32:49;;;;;;;17.38;13.48;;;;;;;;;;6250974;28;20053;-67
2022/11/09 08:35:51;;;;;;;16.77;12.93;;;;;;;;;;6258676;28;20060;-69
2022/11/09 08:38:52;;;;;;;16.63;12.75;;;;;;;;;;6255022;28;20273;-71
2022/11/09 08:41:57;;;;;;;17.48;12.50;;;;;;;;;;6257826;28;20295;-67
2022/11/09 08:44:58;;;;;;;16.83;12.73;;;;;;;;;;6248164;28;20053;-67
2022/11/09 08:48:00;;;;;;;16.58;13.05;;;;;;;;;;6257641;28;20079;-67
2022/11/09 08:51:02;;;;;;;15.30;13.05;;;;;;;;;;6253173;28;20105;-66
2022/11/09 08:54:03;;;;;;;16.25;12.57;;;;;;;;;;6251084;28;20379;-67
2022/11/09 08:57:06;;;;;;;18.42;14.00;;;;;;;;;;6251073;28;20311;-67
2022/11/09 09:00:09;;;;;;;18.10;13.38;;;;;;;;;;6251298;28;20091;-65
2022/11/09 09:03:11;;;;;;;18.67;13.63;;;;;;;;;;6252219;28;20049;-68
2022/11/09 09:06:12;;;;;;;17.65;14.15;;;;;;;;;;6250127;28;20053;-68
2022/11/09 09:09:14;;;;;;;19.17;14.73;;;;;;;;;;6250364;28;20072;-67
2022/11/09 09:12:17;;;;;;;21.48;15.30;;;;;;;;;;6251039;28;20114;-68
2022/11/09 09:15:19;;;;;;;19.17;15.07;;;;;;;;;;6252920;28;20156;-70
2022/11/09 09:18:20;;;;;;;16.08;13.63;;;;;;;;;;6250661;28;20061;-69
2022/11/09 09:21:22;;;;;;;16.50;13.80;;;;;;;;;;6247478;28;20095;-69
2022/11/09 09:24:24;;;;;;;17.85;14.90;;;;;;;;;;6251230;28;20128;-69
2022/11/09 09:27:28;;;;;;;20.58;14.75;;;;;;;;;;6251704;28;20103;-68
2022/11/09 09:30:29;;;;;;;17.00;13.93;;;;;;;;;;6248560;28;20052;-68
2022/11/09 09:33:31;;;;;;;19.92;14.32;;;;;;;;;;6250593;28;20348;-69
2022/11/09 09:36:34;;;;;;;17.42;14.18;;;;;;;;;;6250147;28;20060;-67
2022/11/09 09:39:35;;;;;;;16.75;13.88;;;;;;;;;;6249742;28;20049;-68
2022/11/09 09:42:43;;;;;;;19.98;14.00;;;;;;;;;;6248346;28;20049;-69
2022/11/09 09:45:49;;;;;;;17.55;12.52;;;;;;;;;;6252550;28;20103;-69
2022/11/09 09:48:54;;;;;;;15.90;13.43;;;;;;;;;;6250640;28;20279;-69
2022/11/09 09:52:01;;;;;;;17.02;13.45;;;;;;;;;;6251407;28;20046;-68
2022/11/09 09:55:08;;;;;;;20.98;14.45;;;;;;;;;;6253094;28;20094;-69
2022/11/09 09:58:13;;;;;;;17.05;13.70;;;;;;;;;;6253703;28;20048;-70
2022/11/09 10:01:16;;;;;;;15.50;13.90;;;;;;;;;;6250197;28;20537;-68
2022/11/09 10:04:21;;;;;;;18.33;14.00;;;;;;;;;;6248201;28;20045;-69
2022/11/09 10:07:27;;;;;;;19.85;13.75;;;;;;;;;;6247450;28;20057;-68
2022/11/09 10:10:37;;;;;;;19.65;14.48;;;;;;;;;;6253151;28;20041;-67
2022/11/09 10:13:50;;;;;;;16.83;13.43;;;;;;;;;;6247071;28;20325;-69
2022/11/09 10:16:59;;;;;;;19.63;14.85;;;;;;;;;;6252700;28;20053;-68
2022/11/09 10:20:14;;;;;;;20.25;14.60;;;;;;;;;;6253517;28;20045;-69
2022/11/09 10:23:26;;;;;;;19.23;14.70;;;;;;;;;;6258954;28;20059;-69
2022/11/09 10:26:34;;;;;;;19.30;15.30;;;;;;;;;;6258260;28;20390;-69
2022/11/09 10:29:40;;;;;;;17.88;15.35;;;;;;;;;;6253716;28;20061;-68
2022/11/09 10:32:44;;;;;;;21.23;15.80;;;;;;;;;;6255374;28;20103;-69
2022/11/09 10:35:50;;;;;;;20.30;15.88;;;;;;;;;;6257377;28;20053;-69
2022/11/09 10:38:54;;;;;;;22.08;15.65;;;;;;;;;;6256833;28;20383;-70
2022/11/09 10:41:56;;;;;;;22.08;16.83;;;;;;;;;;6250291;28;20065;-69
2022/11/09 10:45:06;;;;;;;22.88;17.75;;;;;;;;;;6255903;28;20053;-69
2022/11/09 10:48:10;;;;;;;22.80;16.60;;;;;;;;;;6257264;28;20089;-69
2022/11/09 10:51:34;;;;;;;23.25;17.08;;;;;;;;;;6256706;28;20312;-69
2022/11/09 10:54:36;;;;;;;24.50;17.70;;;;;;;;;;6250506;28;20114;-69
2022/11/09 10:57:50;;;;;;;20.10;16.67;;;;;;;;;;6253559;28;20125;-67
2022/11/09 11:01:00;;;;;;;21.90;17.35;;;;;;;;;;6252700;28;20046;-67
2022/11/09 11:04:22;;;;;;;26.00;17.65;;;;;;;;;;6255601;28;20062;-67
2022/11/09 11:07:25;;;;;;;21.70;17.17;;;;;;;;;;6247612;28;20049;-68
2022/11/09 11:10:27;;;;;;;24.23;17.43;;;;;;;;;;6253976;28;20040;-67
2022/11/09 11:13:28;;;;;;;22.17;18.08;;;;;;;;;;6254635;28;20474;-68
2022/11/09 11:16:34;;;;;;;27.38;18.63;;;;;;;;;;6252684;28;20144;-68
2022/11/09 11:19:40;;;;;;;23.98;17.20;;;;;;;;;;6248303;28;20104;-68
2022/11/09 11:22:41;;;;;;;20.08;17.10;;;;;;;;;;6252916;28;20146;-67
2022/11/09 11:26:06;;;;;;;20.85;16.98;;;;;;;;;;6248266;28;20123;-68
2022/11/09 11:29:27;;;;;;;23.10;17.55;;;;;;;;;;6251313;28;20135;-68
2022/11/09 11:32:30;;;;;;;25.50;18.08;;;;;;;;;;6250932;28;20225;-68
2022/11/09 11:35:40;;;;;;;24.27;18.58;;;;;;;;;;6253920;28;20057;-68
2022/11/09 11:38:45;;;;;;;21.77;17.98;;;;;;;;;;6257087;28;20052;-67
2022/11/09 11:42:11;;;;;;;20.63;17.17;;;;;;;;;;6256923;28;20045;-70
2022/11/09 11:45:16;;;;;;;21.27;17.38;;;;;;;;;;6255558;28;20061;-68
2022/11/09 11:48:32;;;;;;;24.10;17.73;;;;;;;;;;6254088;28;20341;-68
2022/11/09 11:51:41;;;;;;;23.42;17.75;;;;;;;;;;6251448;28;20061;-67
2022/11/09 11:54:57;;;;;;;22.38;17.58;;;;;;;;;;6248903;28;20068;-64
2022/11/09 11:58:11;;;;;;;33.75;25.55;;;;;;;;;;6251709;28;20403;-67
2022/11/09 12:01:22;;;;;;;33.97;24.63;;;;;;;;;;6252116;28;20077;-69
2022/11/09 12:04:43;;;;;;;24.15;19.80;;;;;;;;;;6252749;28;20061;-66
2022/11/09 12:07:48;;;;;;;22.92;18.50;;;;;;;;;;6252928;28;20096;-72
2022/11/09 12:10:55;;;;;;;22.10;18.17;;;;;;;;;;6252702;28;20358;-69
2022/11/09 12:14:07;;;;;;;25.75;18.73;;;;;;;;;;6251489;28;20061;-68
2022/11/09 12:17:14;;;;;;;24.73;18.58;;;;;;;;;;6254773;28;20058;-69
2022/11/09 12:20:28;;;;;;;26.40;19.05;;;;;;;;;;6257384;28;20076;-69
2022/11/09 12:24:01;;;;;;;22.53;18.23;;;;;;;;;;6255100;28;20046;-69
2022/11/09 12:27:24;;;;;;;25.67;18.67;;;;;;;;;;6255109;28;20050;-68
2022/11/09 12:30:29;;;;;;;25.75;18.48;;;;;;;;;;6254309;28;20053;-70
2022/11/09 12:33:39;;;;;;;28.60;17.50;;;;;;;;;;6249184;28;20057;-69
2022/11/09 12:36:45;;;;;;;23.05;17.83;;;;;;;;;;6255037;28;20045;-67
2022/11/09 12:39:47;;;;;;;23.45;17.35;;;;;;;;;;6250522;28;20061;-68
2022/11/09 12:42:53;;;;;;;21.92;18.38;;;;;;;;;;6253498;28;20383;-67
2022/11/09 12:45:55;;;;;;;23.63;18.58;;;;;;;;;;6247766;28;20810;-66
2022/11/09 12:49:00;;;;;;;21.27;17.52;;;;;;;;;;6254959;28;20068;-66
2022/11/09 12:52:04;;;;;;;22.40;18.40;;;;;;;;;;6250161;28;20333;-66
2022/11/09 12:55:06;;;;;;;22.63;18.15;;;;;;;;;;6256982;28;20058;-65
2022/11/09 12:58:08;;;;;;;21.52;17.60;;;;;;;;;;6257966;28;20050;-66
2022/11/09 13:01:12;;;;;;;21.40;18.02;;;;;;;;;;6253967;28;20049;-67
2022/11/09 13:04:17;;;;;;;23.13;18.42;;;;;;;;;;6255351;28;20214;-67
2022/11/09 13:07:33;;;;;;;22.10;17.35;;;;;;;;;;6253400;28;20095;-67
2022/11/09 13:10:36;;;;;;;20.15;17.70;;;;;;;;;;6249285;28;20045;-66
2022/11/09 13:13:37;;;;;;;22.13;17.90;;;;;;;;;;6249285;28;20297;-67
2022/11/09 13:16:39;;;;;;;24.25;18.27;;;;;;;;;;6248823;28;20114;-65
2022/11/09 13:19:53;;;;;;;25.17;19.17;;;;;;;;;;6253070;28;20088;-64
2022/11/09 13:23:00;;;;;;;25.10;19.38;;;;;;;;;;6249270;28;20391;-63
2022/11/09 13:26:02;;;;;;;23.88;19.33;;;;;;;;;;6248064;28;20076;-65
2022/11/09 13:29:09;;;;;;;22.25;17.85;;;;;;;;;;6254781;28;20103;-64
2022/11/09 13:32:32;;;;;;;23.13;17.67;;;;;;;;;;6245889;28;20280;-67
2022/11/09 13:35:57;;;;;;;24.20;19.95;;;;;;;;;;6253865;28;20368;-66
2022/11/09 13:39:32;;;;;;;25.00;19.58;;;;;;;;;;6252416;28;20276;-66
2022/11/09 13:42:34;;;;;;;23.35;19.20;;;;;;;;;;6250181;28;20042;-67
2022/11/09 13:45:38;;;;;;;25.70;20.38;;;;;;;;;;6253369;28;20056;-66
2022/11/09 13:48:42;;;;;;;24.42;20.20;;;;;;;;;;6252752;28;20068;-68
2022/11/09 13:51:45;;;;;;;24.58;20.02;;;;;;;;;;6250490;28;20075;-68
2022/11/09 13:54:53;;;;;;;24.95;20.08;;;;;;;;;;6257189;28;20222;-67
2022/11/09 13:57:57;;;;;;;25.08;18.88;;;;;;;;;;6252555;28;20321;-68
2022/11/09 14:00:59;;;;;;;24.52;19.98;;;;;;;;;;6255414;28;20100;-69
2022/11/09 14:04:01;;;;;;;25.45;19.13;;;;;;;;;;6251655;28;20053;-69
2022/11/09 14:07:04;;;;;;;24.50;19.15;;;;;;;;;;6252638;28;20120;-68
2022/11/09 14:10:12;;;;;;;26.77;19.10;;;;;;;;;;6253295;28;20073;-68
2022/11/09 14:13:31;;;;;;;22.15;18.40;;;;;;;;;;6258253;28;20163;-69
2022/11/09 14:16:39;;;;;;;21.88;18.67;;;;;;;;;;6257434;28;20372;-69
2022/11/09 14:19:50;;;;;;;25.73;19.20;;;;;;;;;;6253192;28;20049;-68
2022/11/09 14:22:51;;;;;;;22.65;17.90;;;;;;;;;;6254394;28;20941;-67
2022/11/09 14:25:55;;;;;;;25.55;19.27;;;;;;;;;;6257997;28;20085;-69
2022/11/09 14:28:56;;;;;;;24.08;18.65;;;;;;;;;;6254929;28;20080;-69
2022/11/09 14:31:59;;;;;;;25.50;19.02;;;;;;;;;;6253459;28;20056;-67
2022/11/09 14:35:23;;;;;;;23.70;19.35;;;;;;;;;;6250043;28;20053;-69
2022/11/09 14:38:27;;;;;;;24.65;17.92;;;;;;;;;;6244061;28;20075;-70
2022/11/09 14:41:30;;;;;;;25.77;18.67;;;;;;;;;;6241882;28;20333;-70
2022/11/09 14:44:38;;;;;;;21.60;17.92;;;;;;;;;;6246796;28;21000;-70
2022/11/09 14:47:44;;;;;;;24.85;18.02;;;;;;;;;;6243487;28;20064;-68
2022/11/09 14:50:47;;;;;;;24.00;19.30;;;;;;;;;;6246925;28;20056;-68
2022/11/09 14:53:49;;;;;;;23.02;18.75;;;;;;;;;;6244999;28;20061;-69
2022/11/09 14:56:53;;;;;;;22.88;18.70;;;;;;;;;;6245861;28;20053;-69
2022/11/09 14:59:56;;;;;;;21.17;17.15;;;;;;;;;;6247692;28;20120;-68
2022/11/09 15:02:58;;;;;;;21.53;15.93;;;;;;;;;;6245408;28;20148;-68
2022/11/09 15:06:07;;;;;;;21.23;15.75;;;;;;;;;;6241987;28;20487;-67
2022/11/09 15:09:15;;;;;;;17.63;14.80;;;;;;;;;;6245465;28;20242;-67
2022/11/09 15:12:20;;;;;;;21.75;15.57;;;;;;;;;;6250604;28;20048;-68
2022/11/09 15:15:25;;;;;;;20.17;15.38;;;;;;;;;;6252651;28;20069;-68
2022/11/09 15:18:29;;;;;;;24.20;16.73;;;;;;;;;;6252172;28;20053;-68
2022/11/09 15:21:35;;;;;;;22.00;16.92;;;;;;;;;;6252602;28;20068;-68
2022/11/09 15:24:47;;;;;;;20.60;16.25;;;;;;;;;;6247032;28;20321;-68
2022/11/09 15:28:03;;;;;;;21.33;16.13;;;;;;;;;;6256170;28;20298;-68
2022/11/09 15:31:14;;;;;;;22.08;16.73;;;;;;;;;;6254593;28;20061;-67
2022/11/09 15:34:22;;;;;;;19.27;14.85;;;;;;;;;;6257135;28;20080;-69
2022/11/09 15:37:29;;;;;;;21.38;16.02;;;;;;;;;;6252922;28;20094;-68
2022/11/09 15:40:31;;;;;;;21.23;16.00;;;;;;;;;;6254953;28;20049;-69
2022/11/09 15:43:35;;;;;;;20.25;15.88;;;;;;;;;;6251703;28;20109;-69
2022/11/09 15:46:40;;;;;;;20.23;15.45;;;;;;;;;;6254076;28;20057;-67
2022/11/09 15:49:41;;;;;;;19.75;15.98;;;;;;;;;;6253769;28;20060;-65
2022/11/09 15:52:43;;;;;;;18.65;15.88;;;;;;;;;;6248052;28;20053;-67
2022/11/09 15:55:45;;;;;;;18.80;15.35;;;;;;;;;;6253634;28;20159;-68
2022/11/09 15:58:51;;;;;;;20.75;15.65;;;;;;;;;;6249821;28;20061;-64
2022/11/09 16:01:52;;;;;;;19.77;16.33;;;;;;;;;;6251964;28;20211;-63
2022/11/09 16:04:54;;;;;;;20.52;15.65;;;;;;;;;;6251358;28;20253;-66
2022/11/09 16:07:56;;;;;;;20.17;15.52;;;;;;;;;;6247525;28;20087;-67
2022/11/09 16:10:57;;;;;;;20.27;15.68;;;;;;;;;;6255796;28;20076;-68
2022/11/09 16:14:01;;;;;;;20.83;15.63;;;;;;;;;;6250698;28;20049;-69
2022/11/09 16:17:03;;;;;;;21.08;15.40;;;;;;;;;;6253548;28;20081;-68
2022/11/09 16:20:05;;;;;;;21.08;14.88;;;;;;;;;;6251338;28;20333;-69
2022/11/09 16:23:08;;;;;;;20.70;14.85;;;;;;;;;;6250208;28;20056;-73
2022/11/09 16:26:12;;;;;;;19.55;15.35;;;;;;;;;;6253525;28;20057;-69
2022/11/09 16:29:15;;;;;;;20.80;15.63;;;;;;;;;;6248205;28;20057;-70
2022/11/09 16:32:17;;;;;;;20.23;15.15;;;;;;;;;;6248534;28;20329;-67
2022/11/09 16:35:19;;;;;;;17.55;15.05;;;;;;;;;;6246353;28;20076;-68
2022/11/09 16:38:20;;;;;;;20.77;16.58;;;;;;;;;;6249718;28;20091;-73
2022/11/09 16:41:22;;;;;;;19.77;15.88;;;;;;;;;;6251335;28;20341;-72
2022/11/09 16:44:25;;;;;;;20.90;16.23;;;;;;;;;;6252759;28;20053;-70
2022/11/09 16:47:28;;;;;;;20.17;16.23;;;;;;;;;;6252495;28;20352;-71
2022/11/09 16:50:30;;;;;;;22.77;16.40;;;;;;;;;;6252875;28;20060;-71
2022/11/09 16:53:31;;;;;;;22.55;15.90;;;;;;;;;;6247758;28;20345;-74
2022/11/09 16:56:34;;;;;;;20.02;16.50;;;;;;;;;;6249892;28;20069;-70
2022/11/09 16:59:37;;;;;;;22.27;17.02;;;;;;;;;;6248965;28;20349;-72
2022/11/09 17:02:38;;;;;;;21.67;16.48;;;;;;;;;;6250968;28;20053;-72
2022/11/09 17:05:41;;;;;;;20.52;16.00;;;;;;;;;;6247626;28;20046;-72
2022/11/09 17:08:42;;;;;;;19.17;16.38;;;;;;;;;;6249418;28;20079;-71
2022/11/09 17:11:44;;;;;;;22.92;16.95;;;;;;;;;;6247294;28;20108;-71
2022/11/09 17:14:47;;;;;;;21.38;16.80;;;;;;;;;;6248076;28;20060;-72
2022/11/09 17:17:49;;;;;;;19.43;16.27;;;;;;;;;;6252826;28;20049;-74
2022/11/09 17:20:50;;;;;;;19.80;15.82;;;;;;;;;;6249386;28;21393;-72
2022/11/09 17:23:53;;;;;;;21.58;16.73;;;;;;;;;;6251836;28;20055;-72
2022/11/09 17:26:55;;;;;;;23.25;16.65;;;;;;;;;;6248183;28;20045;-71
2022/11/09 17:29:58;;;;;;;23.48;16.92;;;;;;;;;;6258212;28;20057;-71
2022/11/09 17:32:59;;;;;;;23.83;16.93;;;;;;;;;;6255087;28;20049;-72
2022/11/09 17:36:02;;;;;;;21.98;17.45;;;;;;;;;;6261539;28;20049;-72
2022/11/09 17:39:05;;;;;;;22.50;17.90;;;;;;;;;;6252899;28;20588;-69
2022/11/09 17:42:06;;;;;;;25.13;18.00;;;;;;;;;;6231254;28;20160;-70
2022/11/09 17:45:10;;;;;;;27.10;20.35;;;;;;;;;;6259157;28;20096;-72
2022/11/09 17:48:12;;;;;;;25.17;19.73;;;;;;;;;;6257613;28;20077;-70
2022/11/09 17:51:15;;;;;;;25.73;21.02;;;;;;;;;;6252195;28;20355;-67
2022/11/09 17:54:17;;;;;;;26.98;22.38;;;;;;;;;;6255710;28;20058;-70
2022/11/09 17:57:18;;;;;;;28.67;22.80;;;;;;;;;;6257111;28;20052;-70